createdAt,value
2023-03-24T00:01:07.835Z,1.30
2023-03-24T00:03:34.707Z,1.30
2023-03-24T00:06:03.567Z,1.98
2023-03-24T00:08:37.623Z,1.42
2023-03-24T00:11:08.670Z,1.40
2023-03-24T00:13:38.415Z,1.57
2023-03-24T00:16:11.128Z,1.40
2023-03-24T00:18:39.653Z,1.33
2023-03-24T00:21:08.862Z,1.45
2023-03-24T00:23:35.387Z,1.30
2023-03-24T00:26:05.860Z,1.10
2023-03-24T00:28:37.090Z,1.30
2023-03-24T00:31:06.146Z,1.40
2023-03-24T00:33:34.970Z,1.20
2023-03-24T00:36:03.892Z,1.50
2023-03-24T00:38:30.348Z,1.13
2023-03-24T00:40:57.371Z,1.17
2023-03-24T00:43:24.354Z,1.33
2023-03-24T00:45:52.556Z,1.15
2023-03-24T00:48:20.254Z,1.30
2023-03-24T00:50:50.296Z,1.40
2023-03-24T00:53:18.510Z,1.00
2023-03-24T00:55:48.008Z,1.10
2023-03-24T00:58:19.577Z,1.65
2023-03-24T01:00:48.300Z,1.63
2023-03-24T01:03:15.632Z,1.80
2023-03-24T01:05:48.421Z,1.17
2023-03-24T01:08:20.410Z,1.60
2023-03-24T01:10:53.447Z,1.63
2023-03-24T01:13:28.765Z,1.27
2023-03-24T01:15:56.913Z,1.27
2023-03-24T01:18:24.425Z,1.63
2023-03-24T01:21:02.468Z,1.63
2023-03-24T01:23:30.641Z,1.52
2023-03-24T01:25:57.015Z,1.42
2023-03-24T01:28:25.321Z,1.67
2023-03-24T01:30:53.346Z,1.80
2023-03-24T01:33:20.990Z,1.90
2023-03-24T01:35:56.155Z,1.60
2023-03-24T01:38:22.741Z,1.30
2023-03-24T01:40:55.514Z,1.50
2023-03-24T01:43:33.622Z,1.42
2023-03-24T01:46:20.106Z,1.55
2023-03-24T01:48:55.308Z,1.55
2023-03-24T01:51:28.352Z,1.35
2023-03-24T01:54:20.425Z,1.40
2023-03-24T01:56:51.916Z,1.60
2023-03-24T01:59:24.540Z,1.65
2023-03-24T02:01:54.444Z,1.33
2023-03-24T02:04:21.225Z,1.70
2023-03-24T02:06:51.837Z,1.80
2023-03-24T02:09:18.290Z,1.60
2023-03-24T02:11:44.931Z,1.65
2023-03-24T02:14:12.347Z,1.60
2023-03-24T02:17:12.895Z,1.75
2023-03-24T02:20:11.672Z,1.67
2023-03-24T02:23:04.640Z,1.33
2023-03-24T02:25:49.959Z,1.80
2023-03-24T02:28:21.034Z,1.88
2023-03-24T02:31:18.502Z,1.60
2023-03-24T02:34:14.888Z,1.20
2023-03-24T02:36:50.443Z,1.75
2023-03-24T02:39:38.092Z,1.27
2023-03-24T02:42:25.712Z,0.95
2023-03-24T02:45:13.371Z,0.60
2023-03-24T02:48:04.987Z,0.70
2023-03-24T02:50:35.919Z,0.75
2023-03-24T02:53:19.150Z,1.00
2023-03-24T02:56:11.732Z,0.80
2023-03-24T02:58:49.065Z,0.50
2023-03-24T03:01:31.488Z,0.47
2023-03-24T03:04:03.282Z,0.60
2023-03-24T03:06:34.845Z,0.40
2023-03-24T03:09:07.766Z,0.47
2023-03-24T03:11:35.971Z,0.40
2023-03-24T03:14:35.891Z,0.20
2023-03-24T03:17:12.661Z,0.20
2023-03-24T03:19:43.839Z,0.20
2023-03-24T03:22:18.748Z,0.40
2023-03-24T03:24:50.783Z,0.30
2023-03-24T03:27:25.435Z,0.40
2023-03-24T03:29:58.102Z,0.50
2023-03-24T03:32:33.681Z,0.30
2023-03-24T03:35:35.386Z,0.17
2023-03-24T03:38:24.214Z,0.43
2023-03-24T03:40:55.936Z,0.20
2023-03-24T03:43:24.106Z,0.30
2023-03-24T03:45:51.256Z,0.30
2023-03-24T03:48:18.849Z,0.30
2023-03-24T03:50:46.436Z,0.30
2023-03-24T03:53:19.086Z,0.60
2023-03-24T03:55:45.896Z,0.30
2023-03-24T03:58:12.848Z,0.43
2023-03-24T04:00:39.857Z,0.80
2023-03-24T04:03:24.621Z,0.80
2023-03-24T04:06:04.153Z,0.90
2023-03-24T04:08:42.614Z,0.80
2023-03-24T04:11:32.684Z,1.02
2023-03-24T04:14:08.015Z,0.65
2023-03-24T04:16:53.167Z,0.82
2023-03-24T04:19:41.123Z,0.93
2023-03-24T04:22:25.224Z,0.80
2023-03-24T04:25:06.274Z,0.63
2023-03-24T04:27:46.760Z,0.30
2023-03-24T04:30:30.508Z,0.50
2023-03-24T04:32:58.618Z,0.50
2023-03-24T04:35:40.814Z,1.08
2023-03-24T04:38:11.458Z,1.05
2023-03-24T04:40:42.211Z,0.90
2023-03-24T04:43:14.191Z,1.00
2023-03-24T04:45:41.755Z,0.63
2023-03-24T04:48:10.977Z,0.65
2023-03-24T04:50:43.640Z,1.30
2023-03-24T04:53:16.459Z,1.35
2023-03-24T04:56:02.754Z,1.00
2023-03-24T04:58:29.818Z,1.23
2023-03-24T05:00:58.652Z,0.70
2023-03-24T05:03:25.840Z,1.23
2023-03-24T05:05:53.174Z,1.05
2023-03-24T05:08:20.457Z,1.25
2023-03-24T05:10:46.896Z,0.90
2023-03-24T05:13:14.650Z,1.17
2023-03-24T05:15:41.450Z,0.68
2023-03-24T05:18:07.986Z,1.38
2023-03-24T05:20:34.607Z,1.23
2023-03-24T05:23:04.446Z,0.80
2023-03-24T05:25:31.254Z,0.68
2023-03-24T05:28:14.890Z,1.08
2023-03-24T05:30:41.453Z,1.20
2023-03-24T05:33:17.467Z,1.10
2023-03-24T05:35:44.282Z,0.83
2023-03-24T05:38:11.425Z,1.40
2023-03-24T05:40:38.256Z,1.17
2023-03-24T05:43:11.883Z,1.13
2023-03-24T05:45:41.765Z,1.17
2023-03-24T05:48:08.417Z,1.17
2023-03-24T05:50:35.141Z,1.00
2023-03-24T05:53:13.806Z,1.17
2023-03-24T05:55:40.381Z,1.25
2023-03-24T05:58:06.804Z,0.93
2023-03-24T06:00:43.485Z,0.90
2023-03-24T06:03:10.042Z,1.23
2023-03-24T06:05:36.765Z,1.77
2023-03-24T06:08:04.137Z,1.20
2023-03-24T06:10:30.730Z,1.13
2023-03-24T06:12:57.160Z,0.97
2023-03-24T06:15:27.986Z,0.93
2023-03-24T06:17:57.727Z,1.17
2023-03-24T06:20:24.687Z,1.20
2023-03-24T06:22:59.003Z,1.35
2023-03-24T06:25:27.537Z,1.33
2023-03-24T06:27:54.292Z,0.80
2023-03-24T06:30:21.122Z,1.10
2023-03-24T06:32:54.460Z,1.58
2023-03-24T06:35:33.188Z,1.40
2023-03-24T06:38:06.220Z,1.37
2023-03-24T06:40:42.783Z,1.45
2023-03-24T06:43:09.212Z,1.20
2023-03-24T06:45:47.253Z,1.50
2023-03-24T06:48:16.977Z,0.82
2023-03-24T06:50:54.541Z,1.10
2023-03-24T06:53:33.830Z,1.23
2023-03-24T06:56:07.845Z,1.60
2023-03-24T06:58:47.266Z,1.35
2023-03-24T07:01:23.192Z,1.38
2023-03-24T07:03:49.817Z,1.00
2023-03-24T07:06:18.628Z,1.00
2023-03-24T07:08:45.997Z,1.23
2023-03-24T07:11:12.720Z,1.17
2023-03-24T07:13:39.224Z,2.35
2023-03-24T07:16:06.994Z,0.90
2023-03-24T07:18:33.976Z,1.30
2023-03-24T07:21:00.990Z,1.00
2023-03-24T07:23:27.929Z,1.20
2023-03-24T07:25:54.769Z,0.95
2023-03-24T07:28:21.893Z,1.10
2023-03-24T07:30:49.060Z,1.15
2023-03-24T07:33:15.599Z,0.88
2023-03-24T07:35:43.134Z,1.15
2023-03-24T07:38:10.863Z,1.00
2023-03-24T07:40:37.641Z,1.00
2023-03-24T07:43:05.885Z,1.80
2023-03-24T07:45:36.240Z,1.30
2023-03-24T07:48:02.994Z,0.65
2023-03-24T07:50:30.643Z,1.05
2023-03-24T07:52:59.877Z,1.23
2023-03-24T07:55:27.468Z,1.45
2023-03-24T07:57:54.280Z,1.10
2023-03-24T08:00:21.676Z,0.93
2023-03-24T08:02:52.168Z,1.45
2023-03-24T08:05:23.476Z,1.10
2023-03-24T08:07:55.998Z,1.00
2023-03-24T08:10:25.547Z,0.82
2023-03-24T08:12:54.049Z,0.80
2023-03-24T08:15:21.655Z,1.10
2023-03-24T08:17:49.687Z,0.80
2023-03-24T08:20:16.735Z,1.58
2023-03-24T08:22:45.553Z,1.00
2023-03-24T08:25:13.357Z,1.15
2023-03-24T08:27:40.834Z,1.10
2023-03-24T08:30:10.614Z,1.20
2023-03-24T08:32:37.927Z,1.02
2023-03-24T08:35:06.525Z,1.33
2023-03-24T08:37:32.922Z,1.20
2023-03-24T08:40:12.171Z,0.90
2023-03-24T08:42:51.404Z,1.77
2023-03-24T08:45:21.382Z,1.05
2023-03-24T08:47:50.693Z,1.20
2023-03-24T08:50:20.655Z,1.20
2023-03-24T08:52:48.180Z,1.35
2023-03-24T08:55:16.574Z,1.23
2023-03-24T08:57:43.090Z,0.68
2023-03-24T09:00:16.916Z,1.13
2023-03-24T09:02:45.795Z,1.17
2023-03-24T09:05:13.478Z,1.05
2023-03-24T09:07:40.500Z,1.00
2023-03-24T09:10:08.959Z,1.33
2023-03-24T09:12:38.978Z,0.98
2023-03-24T09:15:08.649Z,1.08
2023-03-24T09:17:36.558Z,1.60
2023-03-24T09:20:08.443Z,1.30
2023-03-24T09:22:42.791Z,0.77
2023-03-24T09:25:14.288Z,0.98
2023-03-24T09:27:41.493Z,2.45
2023-03-24T09:30:09.999Z,0.82
2023-03-24T09:32:36.891Z,1.20
2023-03-24T09:35:04.226Z,1.13
2023-03-24T09:37:40.591Z,1.02
2023-03-24T09:40:08.032Z,0.88
2023-03-24T09:42:40.602Z,1.35
2023-03-24T09:45:21.518Z,0.98
2023-03-24T09:48:18.480Z,0.98
2023-03-24T09:51:02.750Z,0.88
2023-03-24T09:53:41.824Z,0.60
2023-03-24T09:56:16.552Z,0.90
2023-03-24T09:58:45.464Z,1.17
2023-03-24T10:04:03.923Z,0.57
2023-03-24T10:06:40.027Z,0.63
2023-03-24T10:09:24.410Z,0.90
2023-03-24T10:12:28.638Z,1.20
2023-03-24T10:15:24.271Z,0.82
2023-03-24T10:18:04.861Z,1.27
2023-03-24T10:20:38.350Z,0.85
2023-03-24T10:23:35.750Z,0.95
2023-03-24T10:26:26.810Z,0.90
2023-03-24T10:29:13.636Z,0.73
2023-03-24T10:31:41.791Z,1.17
2023-03-24T10:34:13.437Z,0.98
2023-03-24T10:36:41.282Z,1.00
2023-03-24T10:39:20.038Z,1.08
2023-03-24T10:41:54.645Z,1.00
2023-03-24T10:44:22.138Z,0.80
2023-03-24T10:46:53.127Z,1.23
2023-03-24T10:49:22.128Z,0.93
2023-03-24T10:51:51.959Z,0.90
2023-03-24T10:54:26.315Z,0.80
2023-03-24T10:57:06.665Z,1.20
2023-03-24T10:59:38.715Z,1.20
2023-03-24T11:02:25.268Z,1.20
2023-03-24T11:05:05.337Z,1.10
2023-03-24T11:08:17.420Z,0.90
2023-03-24T11:10:44.784Z,1.08
2023-03-24T11:13:28.799Z,0.95
2023-03-24T11:16:04.396Z,1.20
2023-03-24T11:18:31.235Z,0.90
2023-03-24T11:21:07.307Z,0.63
2023-03-24T11:23:40.252Z,0.85
2023-03-24T11:26:18.580Z,1.50
2023-03-24T11:29:17.236Z,0.70
2023-03-24T11:31:58.530Z,1.20
2023-03-24T11:34:34.198Z,0.80
2023-03-24T11:37:03.696Z,0.70
2023-03-24T11:39:32.843Z,0.73
2023-03-24T11:42:12.825Z,0.90
2023-03-24T11:44:39.352Z,0.70
2023-03-24T11:47:08.589Z,1.08
2023-03-24T11:49:43.298Z,0.65
2023-03-24T11:52:21.841Z,0.98
2023-03-24T11:54:52.840Z,0.93
2023-03-24T11:57:40.944Z,0.63
2023-03-24T12:00:23.477Z,1.10
2023-03-24T12:03:12.276Z,0.60
2023-03-24T12:05:51.057Z,0.82
2023-03-24T12:08:27.192Z,0.80
2023-03-24T12:11:06.359Z,0.83
2023-03-24T12:13:36.759Z,0.57
2023-03-24T12:16:36.319Z,1.02
2023-03-24T12:19:35.318Z,0.63
2023-03-24T12:22:04.665Z,0.60
2023-03-24T12:24:44.619Z,1.13
2023-03-24T12:27:36.316Z,0.70
2023-03-24T12:30:20.844Z,0.77
2023-03-24T12:33:11.935Z,0.75
2023-03-24T12:36:17.141Z,0.70
2023-03-24T12:38:57.930Z,0.60
2023-03-24T12:41:55.540Z,0.32
2023-03-24T12:44:37.023Z,0.88
2023-03-24T12:47:37.811Z,0.40
2023-03-24T12:50:34.871Z,0.80
2023-03-24T12:53:23.222Z,0.63
2023-03-24T12:56:16.392Z,0.38
2023-03-24T12:58:50.068Z,0.60
2023-03-24T13:01:33.198Z,0.30
2023-03-24T13:04:22.871Z,0.38
2023-03-24T13:07:14.598Z,0.30
2023-03-24T13:09:55.937Z,0.47
2023-03-24T13:12:40.764Z,0.50
2023-03-24T13:15:20.725Z,0.43
2023-03-24T13:18:25.946Z,0.50
2023-03-24T13:21:16.816Z,0.57
2023-03-24T13:23:59.046Z,0.95
2023-03-24T13:26:43.986Z,0.55
2023-03-24T13:29:38.427Z,0.30
2023-03-24T13:32:22.323Z,0.50
2023-03-24T13:34:54.743Z,0.40
2023-03-24T13:37:25.891Z,0.57
2023-03-24T13:39:58.441Z,0.73
2023-03-24T13:42:31.478Z,0.68
2023-03-24T13:45:01.246Z,0.73
2023-03-24T13:47:47.085Z,0.40
2023-03-24T13:50:14.359Z,0.63
2023-03-24T13:52:46.056Z,0.85
2023-03-24T13:55:20.984Z,0.60
2023-03-24T13:58:28.578Z,0.60
2023-03-24T14:01:12.272Z,0.60
2023-03-24T14:03:41.932Z,0.40
2023-03-24T14:06:09.970Z,0.45
2023-03-24T14:08:57.319Z,0.50
2023-03-24T14:11:38.307Z,0.65
2023-03-24T14:14:18.576Z,0.60
2023-03-24T14:16:57.277Z,0.30
2023-03-24T14:19:40.719Z,0.32
2023-03-24T14:22:14.699Z,0.28
2023-03-24T14:24:46.931Z,0.32
2023-03-24T14:27:42.550Z,0.30
2023-03-24T14:30:22.572Z,0.40
2023-03-24T14:32:56.027Z,0.45
2023-03-24T14:35:43.405Z,0.20
2023-03-24T14:38:34.454Z,0.32
2023-03-24T14:41:07.840Z,0.50
2023-03-24T14:43:40.767Z,0.17
2023-03-24T14:46:22.209Z,0.35
2023-03-24T14:49:01.462Z,0.40
2023-03-24T14:51:45.918Z,0.20
2023-03-24T14:54:17.096Z,0.40
2023-03-24T14:56:47.316Z,0.40
2023-03-24T14:59:43.371Z,0.30
2023-03-24T15:02:50.345Z,0.40
2023-03-24T15:05:32.724Z,0.30
2023-03-24T15:08:10.740Z,0.33
2023-03-24T15:10:49.761Z,0.32
2023-03-24T15:13:29.375Z,0.65
2023-03-24T15:15:56.508Z,0.20
2023-03-24T15:18:23.556Z,0.80
2023-03-24T15:20:53.792Z,0.40
2023-03-24T15:23:23.415Z,0.40
2023-03-24T15:25:50.909Z,0.57
2023-03-24T15:28:26.318Z,0.40
2023-03-24T15:30:54.239Z,0.55
2023-03-24T15:33:21.799Z,0.50
2023-03-24T15:36:00.918Z,0.40
2023-03-24T15:38:31.067Z,0.30
2023-03-24T15:41:07.761Z,0.47
2023-03-24T15:43:43.365Z,0.50
2023-03-24T15:46:31.149Z,0.60
2023-03-24T15:49:03.216Z,0.40
2023-03-24T15:51:51.391Z,0.68
2023-03-24T15:54:25.026Z,0.70
2023-03-24T15:57:02.053Z,0.43
2023-03-24T15:59:39.397Z,0.70
2023-03-24T16:02:16.182Z,0.40
2023-03-24T16:10:06.163Z,0.57
2023-03-24T16:12:45.932Z,0.50
2023-03-24T16:15:15.376Z,0.73
2023-03-24T16:17:42.418Z,0.88
2023-03-24T16:20:47.085Z,0.52
2023-03-24T16:23:13.676Z,0.60
2023-03-24T16:25:40.395Z,0.60
2023-03-24T16:28:17.827Z,0.60
2023-03-24T16:30:45.406Z,0.47
2023-03-24T16:33:12.749Z,0.55
2023-03-24T16:35:39.499Z,0.68
2023-03-24T16:38:06.062Z,0.33
2023-03-24T16:40:32.694Z,0.57
2023-03-24T16:43:19.656Z,0.50
2023-03-24T16:45:57.405Z,0.50
2023-03-24T16:48:32.957Z,0.47
2023-03-24T16:51:01.374Z,0.97
2023-03-24T16:53:27.760Z,0.50
2023-03-24T16:55:54.150Z,0.82
2023-03-24T16:58:20.609Z,0.40
2023-03-24T17:00:49.217Z,0.60
2023-03-24T17:06:03.479Z,0.20
2023-03-24T17:08:38.773Z,0.50
2023-03-24T17:11:06.413Z,0.30
2023-03-24T17:13:36.006Z,0.30
2023-03-24T17:16:11.269Z,0.40
2023-03-24T17:18:39.581Z,0.50
2023-03-24T17:21:17.842Z,0.30
2023-03-24T17:23:54.842Z,0.35
2023-03-24T17:26:22.600Z,0.77
2023-03-24T17:28:49.347Z,0.20
2023-03-24T17:31:27.720Z,0.30
2023-03-24T17:33:54.230Z,0.40
2023-03-24T17:36:21.099Z,0.45
2023-03-24T17:39:05.170Z,0.40
2023-03-24T17:41:31.748Z,0.50
2023-03-24T17:44:00.882Z,0.40
2023-03-24T17:46:27.725Z,0.52
2023-03-24T17:51:34.653Z,0.30
2023-03-24T17:54:01.096Z,0.67
2023-03-24T17:56:36.367Z,0.60
2023-03-24T17:59:03.497Z,1.13
2023-03-24T18:01:30.400Z,0.60
2023-03-24T18:04:00.083Z,0.80
2023-03-24T18:06:27.684Z,0.53
2023-03-24T18:08:54.124Z,0.80
2023-03-24T18:11:20.886Z,0.40
2023-03-24T18:13:47.504Z,0.55
2023-03-24T18:16:21.523Z,0.80
2023-03-24T18:18:50.417Z,0.50
2023-03-24T18:21:17.648Z,1.10
2023-03-24T18:23:44.733Z,0.68
2023-03-24T18:26:11.158Z,0.55
2023-03-24T18:28:39.131Z,0.70
2023-03-24T18:31:10.551Z,0.30
2023-03-24T18:33:37.038Z,0.63
2023-03-24T18:36:04.297Z,0.70
2023-03-24T18:38:31.007Z,0.40
2023-03-24T18:41:02.194Z,0.50
2023-03-24T18:43:40.807Z,0.40
2023-03-24T18:46:11.379Z,0.68
2023-03-24T18:48:38.500Z,0.43
2023-03-24T18:51:06.163Z,0.50
2023-03-24T18:53:36.127Z,0.40
2023-03-24T18:56:04.672Z,0.50
2023-03-24T18:58:31.415Z,0.47
2023-03-24T19:00:58.852Z,0.77
2023-03-24T19:03:26.456Z,0.75
2023-03-24T19:05:58.375Z,0.73
2023-03-24T19:08:24.883Z,0.43
2023-03-24T19:10:54.961Z,0.98
2023-03-24T19:16:10.305Z,0.63
2023-03-24T19:18:43.460Z,0.95
2023-03-24T19:21:10.297Z,0.93
2023-03-24T19:23:43.160Z,0.57
2023-03-24T19:26:09.812Z,0.85
2023-03-24T19:28:44.763Z,0.73
2023-03-24T19:31:16.815Z,0.55
2023-03-24T19:33:43.900Z,0.57
2023-03-24T19:36:16.439Z,0.65
2023-03-24T19:38:42.926Z,0.50
2023-03-24T19:41:12.377Z,0.60
2023-03-24T19:43:38.987Z,0.43
2023-03-24T19:46:16.294Z,0.40
2023-03-24T19:48:42.897Z,0.40
2023-03-24T19:51:14.422Z,0.30
2023-03-24T19:53:41.074Z,0.60
2023-03-24T19:56:23.259Z,0.70
2023-03-24T19:58:53.180Z,0.33
2023-03-24T20:01:21.721Z,0.30
2023-03-24T20:03:48.336Z,0.80
2023-03-24T20:06:15.610Z,0.28
2023-03-24T20:08:43.058Z,0.30
2023-03-24T20:11:11.163Z,0.40
2023-03-24T20:13:40.783Z,0.70
2023-03-24T20:16:10.545Z,0.32
2023-03-24T20:18:38.986Z,0.43
2023-03-24T20:21:07.099Z,0.57
2023-03-24T20:23:33.636Z,0.23
2023-03-24T20:26:01.983Z,0.50
2023-03-24T20:28:28.811Z,0.30
2023-03-24T20:31:03.685Z,0.50
2023-03-24T20:33:45.456Z,0.30
2023-03-24T20:36:12.199Z,0.30
2023-03-24T20:38:41.313Z,0.38
2023-03-24T20:41:08.605Z,0.43
2023-03-24T20:43:38.928Z,0.30
2023-03-24T20:46:17.165Z,0.30
2023-03-24T20:48:50.088Z,0.20
2023-03-24T20:51:26.002Z,0.40
2023-03-24T20:53:57.779Z,0.30
2023-03-24T20:56:25.011Z,0.30
2023-03-24T20:59:06.945Z,0.45
2023-03-24T21:01:48.597Z,0.40
2023-03-24T21:04:24.244Z,0.40
2023-03-24T21:06:51.121Z,0.68
2023-03-24T21:09:17.800Z,0.40
2023-03-24T21:11:51.502Z,0.32
2023-03-24T21:14:23.778Z,0.40
2023-03-24T21:16:53.470Z,0.40
2023-03-24T21:19:25.678Z,0.30
2023-03-24T21:21:52.109Z,0.35
2023-03-24T21:24:24.651Z,0.22
2023-03-24T21:26:51.386Z,0.30
2023-03-24T21:29:22.512Z,0.15
2023-03-24T21:31:49.852Z,0.30
2023-03-24T21:34:42.808Z,0.35
2023-03-24T21:37:12.829Z,0.40
2023-03-24T21:39:39.298Z,0.33
2023-03-24T21:42:06.839Z,0.43
2023-03-24T21:44:34.118Z,0.55
2023-03-24T21:47:00.884Z,0.63
2023-03-24T21:49:27.315Z,0.38
2023-03-24T21:51:55.175Z,0.47
2023-03-24T21:54:22.904Z,0.47
2023-03-24T21:56:49.342Z,0.22
2023-03-24T21:59:15.973Z,0.70
2023-03-24T22:01:42.724Z,0.73
2023-03-24T22:04:10.809Z,0.40
2023-03-24T22:06:38.110Z,0.50
2023-03-24T22:09:10.551Z,0.30
2023-03-24T22:11:42.477Z,0.45
2023-03-24T22:14:09.129Z,0.50
2023-03-24T22:16:35.652Z,0.70
2023-03-24T22:19:02.073Z,0.47
2023-03-24T22:21:28.446Z,0.88
2023-03-24T22:23:55.533Z,0.30
2023-03-24T22:26:21.996Z,0.77
2023-03-24T22:29:00.553Z,0.37
2023-03-24T22:31:27.404Z,0.50
2023-03-24T22:33:54.533Z,0.57
2023-03-24T22:36:21.042Z,0.75
2023-03-24T22:38:56.888Z,0.57
2023-03-24T22:41:23.433Z,0.50
2023-03-24T22:43:49.882Z,0.20
2023-03-24T22:48:56.812Z,0.50
2023-03-24T22:51:23.565Z,0.50
2023-03-24T22:53:50.173Z,0.50
2023-03-24T22:56:16.623Z,0.50
2023-03-24T22:58:43.283Z,0.50
2023-03-24T23:01:09.974Z,0.98
2023-03-24T23:03:36.668Z,0.60
2023-03-24T23:06:03.306Z,0.93
2023-03-24T23:08:31.661Z,0.47
2023-03-24T23:11:10.719Z,0.40
2023-03-24T23:13:38.767Z,0.50
2023-03-24T23:16:05.968Z,0.47
2023-03-24T23:18:45.874Z,0.67
2023-03-24T23:21:21.562Z,1.15
2023-03-24T23:24:00.686Z,0.32
2023-03-24T23:26:30.098Z,0.60
2023-03-24T23:28:57.177Z,0.70
2023-03-24T23:31:27.388Z,0.60
2023-03-24T23:33:56.537Z,0.60
2023-03-24T23:36:26.512Z,0.40
2023-03-24T23:38:54.508Z,1.20
2023-03-24T23:41:21.242Z,0.20
2023-03-24T23:43:50.071Z,0.53
2023-03-24T23:46:24.029Z,0.40
2023-03-24T23:48:50.911Z,0.82
2023-03-24T23:51:17.563Z,0.50
2023-03-24T23:53:52.854Z,0.60
2023-03-24T23:56:21.617Z,0.70
2023-03-24T23:58:54.713Z,0.30
